sensor_id;sensor_type;location;lat;lon;timestamp;P1;durP1;ratioP1;P2;durP2;ratioP2
9166;SDS011;4618;48.818;9.088;2023-05-10T00:00:01;0.60;;;0.60;;
9166;SDS011;4618;48.818;9.088;2023-05-10T00:02:27;0.63;;;0.57;;
9166;SDS011;4618;48.818;9.088;2023-05-10T00:04:52;0.73;;;0.50;;
9166;SDS011;4618;48.818;9.088;2023-05-10T00:07:18;1.17;;;0.30;;
9166;SDS011;4618;48.818;9.088;2023-05-10T00:09:43;0.47;;;0.30;;
9166;SDS011;4618;48.818;9.088;2023-05-10T00:12:09;1.20;;;0.20;;
9166;SDS011;4618;48.818;9.088;2023-05-10T00:14:34;0.10;;;0.10;;
9166;SDS011;4618;48.818;9.088;2023-05-10T00:17:00;2.40;;;0.10;;
9166;SDS011;4618;48.818;9.088;2023-05-10T00:19:26;0.13;;;0.10;;
9166;SDS011;4618;48.818;9.088;2023-05-10T00:21:51;0.27;;;0.10;;
9166;SDS011;4618;48.818;9.088;2023-05-10T00:24:17;5.73;;;0.20;;
9166;SDS011;4618;48.818;9.088;2023-05-10T00:26:43;0.10;;;0.10;;
9166;SDS011;4618;48.818;9.088;2023-05-10T00:29:08;0.00;;;0.00;;
9166;SDS011;4618;48.818;9.088;2023-05-10T00:31:34;1.33;;;0.13;;
9166;SDS011;4618;48.818;9.088;2023-05-10T00:33:59;0.33;;;0.03;;
9166;SDS011;4618;48.818;9.088;2023-05-10T00:36:25;0.10;;;0.10;;
9166;SDS011;4618;48.818;9.088;2023-05-10T00:38:51;3.00;;;0.20;;
9166;SDS011;4618;48.818;9.088;2023-05-10T00:41:16;0.97;;;0.23;;
9166;SDS011;4618;48.818;9.088;2023-05-10T00:43:42;0.27;;;0.10;;
9166;SDS011;4618;48.818;9.088;2023-05-10T00:46:07;0.37;;;0.10;;
9166;SDS011;4618;48.818;9.088;2023-05-10T00:48:33;0.10;;;0.10;;
9166;SDS011;4618;48.818;9.088;2023-05-10T00:51:00;0.10;;;0.10;;
9166;SDS011;4618;48.818;9.088;2023-05-10T00:53:26;1.60;;;0.17;;
9166;SDS011;4618;48.818;9.088;2023-05-10T00:55:52;0.67;;;0.10;;
9166;SDS011;4618;48.818;9.088;2023-05-10T00:58:18;0.20;;;0.20;;
9166;SDS011;4618;48.818;9.088;2023-05-10T01:00:43;0.53;;;0.10;;
9166;SDS011;4618;48.818;9.088;2023-05-10T01:03:12;0.30;;;0.10;;
9166;SDS011;4618;48.818;9.088;2023-05-10T01:05:37;0.23;;;0.17;;
9166;SDS011;4618;48.818;9.088;2023-05-10T01:08:03;0.17;;;0.10;;
9166;SDS011;4618;48.818;9.088;2023-05-10T01:10:29;1.03;;;0.20;;
9166;SDS011;4618;48.818;9.088;2023-05-10T01:12:56;0.20;;;0.20;;
9166;SDS011;4618;48.818;9.088;2023-05-10T01:15:21;0.20;;;0.20;;
9166;SDS011;4618;48.818;9.088;2023-05-10T01:17:47;0.20;;;0.20;;
9166;SDS011;4618;48.818;9.088;2023-05-10T01:20:14;0.23;;;0.20;;
9166;SDS011;4618;48.818;9.088;2023-05-10T01:42:02;1.53;;;0.40;;
9166;SDS011;4618;48.818;9.088;2023-05-10T01:44:37;0.63;;;0.47;;
9166;SDS011;4618;48.818;9.088;2023-05-10T01:47:06;0.43;;;0.40;;
9166;SDS011;4618;48.818;9.088;2023-05-10T01:49:37;0.47;;;0.47;;
9166;SDS011;4618;48.818;9.088;2023-05-10T01:52:15;2.00;;;0.40;;
9166;SDS011;4618;48.818;9.088;2023-05-10T01:54:50;0.60;;;0.30;;
9166;SDS011;4618;48.818;9.088;2023-05-10T01:57:26;0.50;;;0.43;;
9166;SDS011;4618;48.818;9.088;2023-05-10T01:59:57;0.40;;;0.40;;
9166;SDS011;4618;48.818;9.088;2023-05-10T02:02:24;0.47;;;0.40;;
9166;SDS011;4618;48.818;9.088;2023-05-10T02:04:52;0.50;;;0.50;;
9166;SDS011;4618;48.818;9.088;2023-05-10T02:07:20;1.40;;;0.50;;
9166;SDS011;4618;48.818;9.088;2023-05-10T02:09:47;0.60;;;0.60;;
9166;SDS011;4618;48.818;9.088;2023-05-10T02:12:13;0.40;;;0.40;;
9166;SDS011;4618;48.818;9.088;2023-05-10T02:14:40;0.40;;;0.40;;
9166;SDS011;4618;48.818;9.088;2023-05-10T02:17:07;0.40;;;0.40;;
9166;SDS011;4618;48.818;9.088;2023-05-10T02:19:33;0.87;;;0.80;;
9166;SDS011;4618;48.818;9.088;2023-05-10T02:22:01;8.23;;;7.53;;
9166;SDS011;4618;48.818;9.088;2023-05-10T02:24:28;11.97;;;11.03;;
9166;SDS011;4618;48.818;9.088;2023-05-10T02:26:54;16.37;;;14.97;;
9166;SDS011;4618;48.818;9.088;2023-05-10T02:29:22;27.83;;;25.33;;
9166;SDS011;4618;48.818;9.088;2023-05-10T02:31:49;24.97;;;22.77;;
9166;SDS011;4618;48.818;9.088;2023-05-10T02:34:17;16.93;;;15.53;;
9166;SDS011;4618;48.818;9.088;2023-05-10T02:36:44;10.40;;;9.40;;
9166;SDS011;4618;48.818;9.088;2023-05-10T02:39:11;8.03;;;7.33;;
9166;SDS011;4618;48.818;9.088;2023-05-10T02:41:38;5.50;;;5.10;;
9166;SDS011;4618;48.818;9.088;2023-05-10T02:44:06;4.87;;;4.40;;
9166;SDS011;4618;48.818;9.088;2023-05-10T02:46:34;4.03;;;3.53;;
9166;SDS011;4618;48.818;9.088;2023-05-10T02:49:00;0.90;;;0.90;;
9166;SDS011;4618;48.818;9.088;2023-05-10T02:51:26;1.27;;;1.00;;
9166;SDS011;4618;48.818;9.088;2023-05-10T02:54:01;0.63;;;0.57;;
9166;SDS011;4618;48.818;9.088;2023-05-10T02:56:34;0.70;;;0.60;;
9166;SDS011;4618;48.818;9.088;2023-05-10T02:59:05;2.90;;;0.50;;
9166;SDS011;4618;48.818;9.088;2023-05-10T03:01:31;0.93;;;0.50;;
9166;SDS011;4618;48.818;9.088;2023-05-10T03:03:57;0.67;;;0.50;;
9166;SDS011;4618;48.818;9.088;2023-05-10T03:06:22;0.60;;;0.60;;
9166;SDS011;4618;48.818;9.088;2023-05-10T03:08:48;0.60;;;0.60;;
9166;SDS011;4618;48.818;9.088;2023-05-10T03:14:34;2.20;;;0.80;;
9166;SDS011;4618;48.818;9.088;2023-05-10T03:17:11;0.60;;;0.60;;
9166;SDS011;4618;48.818;9.088;2023-05-10T03:19:56;0.70;;;0.70;;
9166;SDS011;4618;48.818;9.088;2023-05-10T03:22:31;1.00;;;0.90;;
9166;SDS011;4618;48.818;9.088;2023-05-10T03:25:00;0.80;;;0.80;;
9166;SDS011;4618;48.818;9.088;2023-05-10T03:27:30;1.77;;;1.33;;
9166;SDS011;4618;48.818;9.088;2023-05-10T03:29:57;1.40;;;1.10;;
9166;SDS011;4618;48.818;9.088;2023-05-10T03:32:23;1.00;;;1.00;;
9166;SDS011;4618;48.818;9.088;2023-05-10T03:34:49;1.50;;;1.17;;
9166;SDS011;4618;48.818;9.088;2023-05-10T03:37:14;1.10;;;1.10;;
9166;SDS011;4618;48.818;9.088;2023-05-10T03:39:40;1.30;;;1.20;;
9166;SDS011;4618;48.818;9.088;2023-05-10T03:42:05;1.53;;;1.30;;
9166;SDS011;4618;48.818;9.088;2023-05-10T03:44:31;1.20;;;1.20;;
9166;SDS011;4618;48.818;9.088;2023-05-10T03:46:58;1.70;;;1.60;;
9166;SDS011;4618;48.818;9.088;2023-05-10T03:49:24;1.73;;;1.53;;
9166;SDS011;4618;48.818;9.088;2023-05-10T03:51:49;1.90;;;1.57;;
9166;SDS011;4618;48.818;9.088;2023-05-10T03:54:15;2.60;;;1.40;;
9166;SDS011;4618;48.818;9.088;2023-05-10T03:56:40;2.10;;;1.13;;
9166;SDS011;4618;48.818;9.088;2023-05-10T03:59:06;1.63;;;1.53;;
9166;SDS011;4618;48.818;9.088;2023-05-10T04:01:33;1.50;;;1.10;;
9166;SDS011;4618;48.818;9.088;2023-05-10T04:03:59;1.40;;;1.30;;
9166;SDS011;4618;48.818;9.088;2023-05-10T04:06:25;1.53;;;1.07;;
9166;SDS011;4618;48.818;9.088;2023-05-10T04:08:51;0.90;;;0.90;;
9166;SDS011;4618;48.818;9.088;2023-05-10T04:11:16;0.70;;;0.70;;
9166;SDS011;4618;48.818;9.088;2023-05-10T04:13:42;1.70;;;0.90;;
9166;SDS011;4618;48.818;9.088;2023-05-10T04:16:08;0.87;;;0.87;;
9166;SDS011;4618;48.818;9.088;2023-05-10T04:18:33;1.63;;;0.87;;
9166;SDS011;4618;48.818;9.088;2023-05-10T04:20:59;1.17;;;0.93;;
9166;SDS011;4618;48.818;9.088;2023-05-10T04:23:26;0.80;;;0.80;;
9166;SDS011;4618;48.818;9.088;2023-05-10T04:25:52;1.00;;;0.57;;
9166;SDS011;4618;48.818;9.088;2023-05-10T04:28:23;0.50;;;0.50;;
9166;SDS011;4618;48.818;9.088;2023-05-10T04:30:49;3.23;;;0.70;;
9166;SDS011;4618;48.818;9.088;2023-05-10T04:33:14;1.13;;;0.80;;
9166;SDS011;4618;48.818;9.088;2023-05-10T04:35:40;1.60;;;0.70;;
9166;SDS011;4618;48.818;9.088;2023-05-10T04:38:06;1.80;;;0.60;;
9166;SDS011;4618;48.818;9.088;2023-05-10T04:40:31;1.57;;;0.87;;
9166;SDS011;4618;48.818;9.088;2023-05-10T04:42:57;1.13;;;0.80;;
9166;SDS011;4618;48.818;9.088;2023-05-10T04:45:22;2.00;;;0.90;;
9166;SDS011;4618;48.818;9.088;2023-05-10T04:47:48;1.67;;;0.80;;
9166;SDS011;4618;48.818;9.088;2023-05-10T04:50:14;0.73;;;0.73;;
9166;SDS011;4618;48.818;9.088;2023-05-10T04:52:39;0.70;;;0.70;;
9166;SDS011;4618;48.818;9.088;2023-05-10T04:55:05;0.80;;;0.80;;
9166;SDS011;4618;48.818;9.088;2023-05-10T04:57:32;1.13;;;0.67;;
9166;SDS011;4618;48.818;9.088;2023-05-10T04:59:59;0.90;;;0.90;;
9166;SDS011;4618;48.818;9.088;2023-05-10T05:02:24;2.37;;;0.80;;
9166;SDS011;4618;48.818;9.088;2023-05-10T05:04:50;1.97;;;1.00;;
9166;SDS011;4618;48.818;9.088;2023-05-10T05:07:16;1.53;;;0.70;;
9166;SDS011;4618;48.818;9.088;2023-05-10T05:09:41;0.57;;;0.57;;
9166;SDS011;4618;48.818;9.088;2023-05-10T05:12:07;1.70;;;0.80;;
9166;SDS011;4618;48.818;9.088;2023-05-10T05:14:32;1.63;;;0.80;;
9166;SDS011;4618;48.818;9.088;2023-05-10T05:16:58;0.80;;;0.77;;
9166;SDS011;4618;48.818;9.088;2023-05-10T05:19:24;1.50;;;0.73;;
9166;SDS011;4618;48.818;9.088;2023-05-10T05:21:49;2.07;;;0.70;;
9166;SDS011;4618;48.818;9.088;2023-05-10T05:24:15;0.60;;;0.60;;
9166;SDS011;4618;48.818;9.088;2023-05-10T05:26:40;0.70;;;0.60;;
9166;SDS011;4618;48.818;9.088;2023-05-10T05:29:06;2.73;;;0.80;;
9166;SDS011;4618;48.818;9.088;2023-05-10T05:31:32;2.30;;;0.73;;
9166;SDS011;4618;48.818;9.088;2023-05-10T05:33:57;2.83;;;1.10;;
9166;SDS011;4618;48.818;9.088;2023-05-10T05:36:23;1.53;;;0.67;;
9166;SDS011;4618;48.818;9.088;2023-05-10T05:38:48;0.97;;;0.90;;
9166;SDS011;4618;48.818;9.088;2023-05-10T05:41:14;1.27;;;0.70;;
9166;SDS011;4618;48.818;9.088;2023-05-10T05:43:39;0.83;;;0.70;;
9166;SDS011;4618;48.818;9.088;2023-05-10T05:46:05;2.57;;;0.77;;
9166;SDS011;4618;48.818;9.088;2023-05-10T05:48:31;2.83;;;0.70;;
9166;SDS011;4618;48.818;9.088;2023-05-10T05:50:57;1.47;;;0.80;;
9166;SDS011;4618;48.818;9.088;2023-05-10T05:53:23;1.27;;;0.73;;
9166;SDS011;4618;48.818;9.088;2023-05-10T05:55:52;1.90;;;0.80;;
9166;SDS011;4618;48.818;9.088;2023-05-10T05:58:19;2.97;;;0.80;;
9166;SDS011;4618;48.818;9.088;2023-05-10T06:00:45;1.57;;;0.90;;
9166;SDS011;4618;48.818;9.088;2023-05-10T06:03:11;0.70;;;0.70;;
9166;SDS011;4618;48.818;9.088;2023-05-10T06:05:37;1.63;;;0.90;;
9166;SDS011;4618;48.818;9.088;2023-05-10T06:08:02;2.83;;;0.80;;
9166;SDS011;4618;48.818;9.088;2023-05-10T06:10:28;1.10;;;0.80;;
9166;SDS011;4618;48.818;9.088;2023-05-10T06:12:54;1.23;;;0.93;;
9166;SDS011;4618;48.818;9.088;2023-05-10T06:15:19;1.10;;;1.00;;
9166;SDS011;4618;48.818;9.088;2023-05-10T06:17:45;1.10;;;0.93;;
9166;SDS011;4618;48.818;9.088;2023-05-10T06:20:12;2.37;;;1.00;;
9166;SDS011;4618;48.818;9.088;2023-05-10T06:22:38;1.70;;;1.13;;
9166;SDS011;4618;48.818;9.088;2023-05-10T06:25:03;2.27;;;1.30;;
9166;SDS011;4618;48.818;9.088;2023-05-10T06:27:29;1.23;;;1.13;;
9166;SDS011;4618;48.818;9.088;2023-05-10T06:29:55;1.33;;;1.00;;
9166;SDS011;4618;48.818;9.088;2023-05-10T06:32:20;1.10;;;1.00;;
9166;SDS011;4618;48.818;9.088;2023-05-10T06:34:46;1.83;;;0.80;;
9166;SDS011;4618;48.818;9.088;2023-05-10T06:37:11;1.47;;;0.70;;
9166;SDS011;4618;48.818;9.088;2023-05-10T06:39:37;2.90;;;0.93;;
9166;SDS011;4618;48.818;9.088;2023-05-10T06:42:03;1.40;;;1.03;;
9166;SDS011;4618;48.818;9.088;2023-05-10T06:44:29;2.50;;;1.00;;
9166;SDS011;4618;48.818;9.088;2023-05-10T06:46:55;2.37;;;0.90;;
9166;SDS011;4618;48.818;9.088;2023-05-10T06:49:20;1.20;;;1.10;;
9166;SDS011;4618;48.818;9.088;2023-05-10T06:51:46;2.07;;;1.03;;
9166;SDS011;4618;48.818;9.088;2023-05-10T06:54:12;3.10;;;1.03;;
9166;SDS011;4618;48.818;9.088;2023-05-10T06:56:37;2.37;;;1.27;;
9166;SDS011;4618;48.818;9.088;2023-05-10T06:59:03;3.13;;;1.10;;
9166;SDS011;4618;48.818;9.088;2023-05-10T07:01:28;1.83;;;1.07;;
9166;SDS011;4618;48.818;9.088;2023-05-10T07:03:54;2.97;;;0.80;;
9166;SDS011;4618;48.818;9.088;2023-05-10T07:06:19;2.97;;;0.93;;
9166;SDS011;4618;48.818;9.088;2023-05-10T07:08:45;1.83;;;0.83;;
9166;SDS011;4618;48.818;9.088;2023-05-10T07:11:10;1.20;;;1.07;;
9166;SDS011;4618;48.818;9.088;2023-05-10T07:13:36;1.80;;;0.87;;
9166;SDS011;4618;48.818;9.088;2023-05-10T07:16:04;1.40;;;0.97;;
9166;SDS011;4618;48.818;9.088;2023-05-10T07:18:31;1.90;;;0.70;;
9166;SDS011;4618;48.818;9.088;2023-05-10T07:20:57;0.70;;;0.70;;
9166;SDS011;4618;48.818;9.088;2023-05-10T07:23:22;1.37;;;0.87;;
9166;SDS011;4618;48.818;9.088;2023-05-10T07:25:49;2.07;;;0.77;;
9166;SDS011;4618;48.818;9.088;2023-05-10T07:28:17;0.70;;;0.70;;
9166;SDS011;4618;48.818;9.088;2023-05-10T07:30:43;1.83;;;0.73;;
9166;SDS011;4618;48.818;9.088;2023-05-10T07:33:09;2.77;;;0.80;;
9166;SDS011;4618;48.818;9.088;2023-05-10T07:35:36;2.10;;;0.80;;
9166;SDS011;4618;48.818;9.088;2023-05-10T07:38:02;0.70;;;0.60;;
9166;SDS011;4618;48.818;9.088;2023-05-10T07:40:27;0.93;;;0.63;;
9166;SDS011;4618;48.818;9.088;2023-05-10T07:42:53;1.03;;;0.70;;
9166;SDS011;4618;48.818;9.088;2023-05-10T07:45:19;0.80;;;0.60;;
9166;SDS011;4618;48.818;9.088;2023-05-10T07:47:44;1.17;;;0.43;;
9166;SDS011;4618;48.818;9.088;2023-05-10T07:50:10;1.00;;;0.70;;
9166;SDS011;4618;48.818;9.088;2023-05-10T07:52:35;0.50;;;0.50;;
9166;SDS011;4618;48.818;9.088;2023-05-10T07:55:01;0.60;;;0.50;;
9166;SDS011;4618;48.818;9.088;2023-05-10T07:57:27;1.33;;;0.63;;
9166;SDS011;4618;48.818;9.088;2023-05-10T07:59:52;1.30;;;0.60;;
9166;SDS011;4618;48.818;9.088;2023-05-10T08:02:18;0.87;;;0.40;;
9166;SDS011;4618;48.818;9.088;2023-05-10T08:04:43;1.63;;;0.63;;
9166;SDS011;4618;48.818;9.088;2023-05-10T08:07:09;0.30;;;0.30;;
9166;SDS011;4618;48.818;9.088;2023-05-10T08:09:35;1.90;;;0.50;;
9166;SDS011;4618;48.818;9.088;2023-05-10T08:12:01;1.27;;;0.30;;
9166;SDS011;4618;48.818;9.088;2023-05-10T08:14:27;0.67;;;0.40;;
9166;SDS011;4618;48.818;9.088;2023-05-10T08:16:53;0.83;;;0.30;;
9166;SDS011;4618;48.818;9.088;2023-05-10T08:19:19;0.50;;;0.37;;
9166;SDS011;4618;48.818;9.088;2023-05-10T08:21:46;0.30;;;0.30;;
9166;SDS011;4618;48.818;9.088;2023-05-10T08:24:12;0.20;;;0.20;;
9166;SDS011;4618;48.818;9.088;2023-05-10T08:26:38;1.57;;;0.30;;
9166;SDS011;4618;48.818;9.088;2023-05-10T08:29:03;0.30;;;0.30;;
9166;SDS011;4618;48.818;9.088;2023-05-10T08:31:29;0.10;;;0.10;;
9166;SDS011;4618;48.818;9.088;2023-05-10T08:33:55;1.77;;;0.23;;
9166;SDS011;4618;48.818;9.088;2023-05-10T08:36:20;0.70;;;0.23;;
9166;SDS011;4618;48.818;9.088;2023-05-10T08:38:52;0.30;;;0.30;;
9166;SDS011;4618;48.818;9.088;2023-05-10T08:41:21;0.33;;;0.30;;
9166;SDS011;4618;48.818;9.088;2023-05-10T08:43:50;0.20;;;0.20;;
9166;SDS011;4618;48.818;9.088;2023-05-10T08:46:16;0.30;;;0.30;;
9166;SDS011;4618;48.818;9.088;2023-05-10T08:48:47;3.60;;;0.30;;
9166;SDS011;4618;48.818;9.088;2023-05-10T08:51:14;0.87;;;0.27;;
9166;SDS011;4618;48.818;9.088;2023-05-10T08:53:45;1.23;;;0.20;;
9166;SDS011;4618;48.818;9.088;2023-05-10T08:56:11;1.10;;;0.30;;
9166;SDS011;4618;48.818;9.088;2023-05-10T08:58:37;0.33;;;0.30;;
9166;SDS011;4618;48.818;9.088;2023-05-10T09:01:03;0.40;;;0.20;;
9166;SDS011;4618;48.818;9.088;2023-05-10T09:03:30;1.53;;;0.30;;
9166;SDS011;4618;48.818;9.088;2023-05-10T09:05:56;1.10;;;0.20;;
9166;SDS011;4618;48.818;9.088;2023-05-10T09:08:23;1.93;;;0.33;;
9166;SDS011;4618;48.818;9.088;2023-05-10T09:10:52;1.43;;;0.20;;
9166;SDS011;4618;48.818;9.088;2023-05-10T09:13:19;0.50;;;0.20;;
9166;SDS011;4618;48.818;9.088;2023-05-10T09:15:46;0.97;;;0.20;;
9166;SDS011;4618;48.818;9.088;2023-05-10T09:18:13;0.60;;;0.30;;
9166;SDS011;4618;48.818;9.088;2023-05-10T09:24:02;1.23;;;0.20;;
9166;SDS011;4618;48.818;9.088;2023-05-10T09:26:29;0.50;;;0.20;;
9166;SDS011;4618;48.818;9.088;2023-05-10T09:28:56;0.40;;;0.30;;
9166;SDS011;4618;48.818;9.088;2023-05-10T09:31:23;0.97;;;0.10;;
9166;SDS011;4618;48.818;9.088;2023-05-10T09:33:50;0.30;;;0.30;;
9166;SDS011;4618;48.818;9.088;2023-05-10T09:36:16;1.10;;;0.30;;
9166;SDS011;4618;48.818;9.088;2023-05-10T09:38:48;1.47;;;0.30;;
9166;SDS011;4618;48.818;9.088;2023-05-10T09:41:20;1.03;;;0.20;;
9166;SDS011;4618;48.818;9.088;2023-05-10T09:43:47;2.10;;;0.20;;
9166;SDS011;4618;48.818;9.088;2023-05-10T09:46:13;0.43;;;0.20;;
9166;SDS011;4618;48.818;9.088;2023-05-10T09:48:40;0.50;;;0.40;;
9166;SDS011;4618;48.818;9.088;2023-05-10T09:51:07;4.03;;;0.30;;
9166;SDS011;4618;48.818;9.088;2023-05-10T09:53:33;2.23;;;0.40;;
9166;SDS011;4618;48.818;9.088;2023-05-10T09:55:59;0.40;;;0.30;;
9166;SDS011;4618;48.818;9.088;2023-05-10T09:58:24;3.50;;;0.20;;
9166;SDS011;4618;48.818;9.088;2023-05-10T10:00:50;1.20;;;0.20;;
9166;SDS011;4618;48.818;9.088;2023-05-10T10:03:18;0.70;;;0.40;;
9166;SDS011;4618;48.818;9.088;2023-05-10T10:05:45;1.73;;;0.20;;
9166;SDS011;4618;48.818;9.088;2023-05-10T10:08:12;1.80;;;0.40;;
9166;SDS011;4618;48.818;9.088;2023-05-10T10:10:38;1.23;;;0.40;;
9166;SDS011;4618;48.818;9.088;2023-05-10T10:13:09;0.93;;;0.30;;
9166;SDS011;4618;48.818;9.088;2023-05-10T10:15:34;0.67;;;0.20;;
9166;SDS011;4618;48.818;9.088;2023-05-10T10:18:00;1.90;;;0.30;;
9166;SDS011;4618;48.818;9.088;2023-05-10T10:20:26;2.73;;;0.30;;
9166;SDS011;4618;48.818;9.088;2023-05-10T10:22:53;0.30;;;0.20;;
9166;SDS011;4618;48.818;9.088;2023-05-10T10:25:19;1.10;;;0.40;;
9166;SDS011;4618;48.818;9.088;2023-05-10T10:33:22;2.77;;;0.30;;
9166;SDS011;4618;48.818;9.088;2023-05-10T10:36:07;0.63;;;0.30;;
9166;SDS011;4618;48.818;9.088;2023-05-10T10:38:37;0.30;;;0.30;;
9166;SDS011;4618;48.818;9.088;2023-05-10T10:41:27;0.37;;;0.20;;
9166;SDS011;4618;48.818;9.088;2023-05-10T10:52:30;0.30;;;0.20;;
9166;SDS011;4618;48.818;9.088;2023-05-10T10:55:01;2.30;;;0.20;;
9166;SDS011;4618;48.818;9.088;2023-05-10T10:57:44;0.47;;;0.30;;
9166;SDS011;4618;48.818;9.088;2023-05-10T11:03:00;0.53;;;0.30;;
9166;SDS011;4618;48.818;9.088;2023-05-10T11:05:41;0.87;;;0.30;;
9166;SDS011;4618;48.818;9.088;2023-05-10T11:08:12;2.27;;;0.30;;
9166;SDS011;4618;48.818;9.088;2023-05-10T11:10:40;0.67;;;0.20;;
9166;SDS011;4618;48.818;9.088;2023-05-10T11:13:14;0.23;;;0.20;;
9166;SDS011;4618;48.818;9.088;2023-05-10T11:15:40;1.50;;;0.20;;
9166;SDS011;4618;48.818;9.088;2023-05-10T11:18:16;1.87;;;0.40;;
9166;SDS011;4618;48.818;9.088;2023-05-10T11:20:57;2.83;;;0.30;;
9166;SDS011;4618;48.818;9.088;2023-05-10T11:23:29;0.20;;;0.20;;
9166;SDS011;4618;48.818;9.088;2023-05-10T11:26:14;1.27;;;0.30;;
9166;SDS011;4618;48.818;9.088;2023-05-10T11:28:47;0.23;;;0.20;;
9166;SDS011;4618;48.818;9.088;2023-05-10T11:31:17;1.23;;;0.20;;
9166;SDS011;4618;48.818;9.088;2023-05-10T11:36:16;0.40;;;0.30;;
9166;SDS011;4618;48.818;9.088;2023-05-10T11:38:43;2.40;;;0.47;;
9166;SDS011;4618;48.818;9.088;2023-05-10T11:41:09;0.30;;;0.30;;
9166;SDS011;4618;48.818;9.088;2023-05-10T11:43:36;0.67;;;0.33;;
9166;SDS011;4618;48.818;9.088;2023-05-10T11:46:06;1.83;;;0.50;;
9166;SDS011;4618;48.818;9.088;2023-05-10T11:48:33;2.00;;;0.50;;
9166;SDS011;4618;48.818;9.088;2023-05-10T11:50:58;1.40;;;0.40;;
9166;SDS011;4618;48.818;9.088;2023-05-10T11:53:27;0.97;;;0.40;;
9166;SDS011;4618;48.818;9.088;2023-05-10T11:55:54;2.50;;;0.40;;
9166;SDS011;4618;48.818;9.088;2023-05-10T11:58:19;3.27;;;0.50;;
9166;SDS011;4618;48.818;9.088;2023-05-10T12:00:46;0.40;;;0.37;;
9166;SDS011;4618;48.818;9.088;2023-05-10T12:03:12;1.63;;;0.40;;
9166;SDS011;4618;48.818;9.088;2023-05-10T12:05:38;3.80;;;0.60;;
9166;SDS011;4618;48.818;9.088;2023-05-10T12:08:13;1.20;;;0.60;;
9166;SDS011;4618;48.818;9.088;2023-05-10T12:10:39;1.40;;;0.60;;
9166;SDS011;4618;48.818;9.088;2023-05-10T12:13:05;1.77;;;0.40;;
9166;SDS011;4618;48.818;9.088;2023-05-10T12:15:37;1.70;;;0.57;;
9166;SDS011;4618;48.818;9.088;2023-05-10T12:18:02;1.47;;;0.50;;
9166;SDS011;4618;48.818;9.088;2023-05-10T12:20:28;1.53;;;0.40;;
9166;SDS011;4618;48.818;9.088;2023-05-10T12:22:55;2.00;;;0.40;;
9166;SDS011;4618;48.818;9.088;2023-05-10T12:25:23;1.60;;;0.60;;
9166;SDS011;4618;48.818;9.088;2023-05-10T12:27:52;1.60;;;0.83;;
9166;SDS011;4618;48.818;9.088;2023-05-10T12:30:23;2.00;;;0.47;;
9166;SDS011;4618;48.818;9.088;2023-05-10T12:32:53;1.20;;;0.50;;
9166;SDS011;4618;48.818;9.088;2023-05-10T12:35:23;0.83;;;0.50;;
9166;SDS011;4618;48.818;9.088;2023-05-10T12:37:52;1.03;;;0.40;;
9166;SDS011;4618;48.818;9.088;2023-05-10T12:40:18;1.93;;;0.40;;
9166;SDS011;4618;48.818;9.088;2023-05-10T12:42:44;0.87;;;0.30;;
9166;SDS011;4618;48.818;9.088;2023-05-10T12:45:13;1.90;;;0.50;;
9166;SDS011;4618;48.818;9.088;2023-05-10T12:47:39;2.37;;;0.50;;
9166;SDS011;4618;48.818;9.088;2023-05-10T12:50:05;0.63;;;0.40;;
9166;SDS011;4618;48.818;9.088;2023-05-10T12:52:31;0.60;;;0.40;;
9166;SDS011;4618;48.818;9.088;2023-05-10T12:54:57;3.93;;;0.50;;
9166;SDS011;4618;48.818;9.088;2023-05-10T12:57:23;3.03;;;0.50;;
9166;SDS011;4618;48.818;9.088;2023-05-10T12:59:49;2.70;;;0.60;;
9166;SDS011;4618;48.818;9.088;2023-05-10T13:02:15;4.27;;;0.57;;
9166;SDS011;4618;48.818;9.088;2023-05-10T13:04:43;0.87;;;0.53;;
9166;SDS011;4618;48.818;9.088;2023-05-10T13:07:09;1.10;;;0.50;;
9166;SDS011;4618;48.818;9.088;2023-05-10T13:09:35;2.27;;;0.70;;
9166;SDS011;4618;48.818;9.088;2023-05-10T13:12:01;1.40;;;0.50;;
9166;SDS011;4618;48.818;9.088;2023-05-10T13:14:27;1.43;;;0.70;;
9166;SDS011;4618;48.818;9.088;2023-05-10T13:16:52;1.27;;;0.50;;
9166;SDS011;4618;48.818;9.088;2023-05-10T13:19:18;1.80;;;0.50;;
9166;SDS011;4618;48.818;9.088;2023-05-10T13:21:44;2.40;;;0.50;;
9166;SDS011;4618;48.818;9.088;2023-05-10T13:24:10;1.23;;;0.40;;
9166;SDS011;4618;48.818;9.088;2023-05-10T13:26:38;2.23;;;0.70;;
9166;SDS011;4618;48.818;9.088;2023-05-10T13:29:05;1.17;;;0.40;;
9166;SDS011;4618;48.818;9.088;2023-05-10T13:31:30;1.10;;;0.50;;
9166;SDS011;4618;48.818;9.088;2023-05-10T13:33:56;4.83;;;0.40;;
9166;SDS011;4618;48.818;9.088;2023-05-10T13:36:21;2.47;;;0.43;;
9166;SDS011;4618;48.818;9.088;2023-05-10T13:38:47;4.20;;;0.43;;
9166;SDS011;4618;48.818;9.088;2023-05-10T13:41:13;1.43;;;0.60;;
9166;SDS011;4618;48.818;9.088;2023-05-10T13:43:39;3.87;;;0.60;;
9166;SDS011;4618;48.818;9.088;2023-05-10T13:46:04;2.10;;;0.60;;
9166;SDS011;4618;48.818;9.088;2023-05-10T13:48:30;1.63;;;0.47;;
9166;SDS011;4618;48.818;9.088;2023-05-10T13:50:56;0.83;;;0.50;;
9166;SDS011;4618;48.818;9.088;2023-05-10T13:53:21;1.53;;;0.40;;
9166;SDS011;4618;48.818;9.088;2023-05-10T13:55:47;2.40;;;0.50;;
9166;SDS011;4618;48.818;9.088;2023-05-10T13:58:13;1.43;;;0.40;;
9166;SDS011;4618;48.818;9.088;2023-05-10T14:00:39;4.77;;;0.60;;
9166;SDS011;4618;48.818;9.088;2023-05-10T14:03:04;2.63;;;0.57;;
9166;SDS011;4618;48.818;9.088;2023-05-10T14:05:31;4.07;;;0.40;;
9166;SDS011;4618;48.818;9.088;2023-05-10T14:07:56;1.07;;;0.40;;
9166;SDS011;4618;48.818;9.088;2023-05-10T14:10:22;1.33;;;0.40;;
9166;SDS011;4618;48.818;9.088;2023-05-10T14:12:47;0.70;;;0.30;;
9166;SDS011;4618;48.818;9.088;2023-05-10T14:15:14;0.60;;;0.40;;
9166;SDS011;4618;48.818;9.088;2023-05-10T14:17:40;3.23;;;0.50;;
9166;SDS011;4618;48.818;9.088;2023-05-10T14:20:06;0.60;;;0.30;;
9166;SDS011;4618;48.818;9.088;2023-05-10T14:22:32;0.20;;;0.20;;
9166;SDS011;4618;48.818;9.088;2023-05-10T14:24:58;1.63;;;0.60;;
9166;SDS011;4618;48.818;9.088;2023-05-10T14:27:23;0.90;;;0.40;;
9166;SDS011;4618;48.818;9.088;2023-05-10T14:29:49;2.20;;;0.50;;
9166;SDS011;4618;48.818;9.088;2023-05-10T14:32:15;0.50;;;0.30;;
9166;SDS011;4618;48.818;9.088;2023-05-10T14:34:40;1.90;;;0.40;;
9166;SDS011;4618;48.818;9.088;2023-05-10T14:37:06;1.93;;;0.30;;
9166;SDS011;4618;48.818;9.088;2023-05-10T14:39:31;0.70;;;0.27;;
9166;SDS011;4618;48.818;9.088;2023-05-10T14:41:58;2.97;;;0.30;;
9166;SDS011;4618;48.818;9.088;2023-05-10T14:44:23;1.50;;;0.40;;
9166;SDS011;4618;48.818;9.088;2023-05-10T14:46:49;0.50;;;0.40;;
9166;SDS011;4618;48.818;9.088;2023-05-10T14:49:15;3.20;;;0.40;;
9166;SDS011;4618;48.818;9.088;2023-05-10T14:51:40;2.20;;;0.30;;
9166;SDS011;4618;48.818;9.088;2023-05-10T14:54:06;2.17;;;0.57;;
9166;SDS011;4618;48.818;9.088;2023-05-10T14:56:32;1.03;;;0.43;;
9166;SDS011;4618;48.818;9.088;2023-05-10T14:58:57;1.40;;;0.40;;
9166;SDS011;4618;48.818;9.088;2023-05-10T15:01:24;1.80;;;0.30;;
9166;SDS011;4618;48.818;9.088;2023-05-10T15:03:50;0.83;;;0.40;;
9166;SDS011;4618;48.818;9.088;2023-05-10T15:06:15;4.33;;;0.50;;
9166;SDS011;4618;48.818;9.088;2023-05-10T15:08:41;1.73;;;0.30;;
9166;SDS011;4618;48.818;9.088;2023-05-10T15:11:06;2.27;;;0.43;;
9166;SDS011;4618;48.818;9.088;2023-05-10T15:13:32;1.87;;;0.50;;
9166;SDS011;4618;48.818;9.088;2023-05-10T15:15:58;0.73;;;0.23;;
9166;SDS011;4618;48.818;9.088;2023-05-10T15:18:23;0.87;;;0.40;;
9166;SDS011;4618;48.818;9.088;2023-05-10T15:20:49;2.00;;;0.30;;
9166;SDS011;4618;48.818;9.088;2023-05-10T15:23:15;1.37;;;0.40;;
9166;SDS011;4618;48.818;9.088;2023-05-10T15:25:40;0.43;;;0.30;;
9166;SDS011;4618;48.818;9.088;2023-05-10T15:28:06;1.43;;;0.30;;
9166;SDS011;4618;48.818;9.088;2023-05-10T15:30:31;1.07;;;0.30;;
9166;SDS011;4618;48.818;9.088;2023-05-10T15:32:57;2.20;;;0.50;;
9166;SDS011;4618;48.818;9.088;2023-05-10T15:35:23;0.30;;;0.30;;
9166;SDS011;4618;48.818;9.088;2023-05-10T15:37:48;1.27;;;0.37;;
9166;SDS011;4618;48.818;9.088;2023-05-10T15:40:14;0.30;;;0.30;;
9166;SDS011;4618;48.818;9.088;2023-05-10T15:42:40;2.77;;;0.30;;
9166;SDS011;4618;48.818;9.088;2023-05-10T15:45:06;1.00;;;0.20;;
9166;SDS011;4618;48.818;9.088;2023-05-10T15:47:31;2.70;;;0.40;;
9166;SDS011;4618;48.818;9.088;2023-05-10T15:49:57;1.37;;;0.30;;
9166;SDS011;4618;48.818;9.088;2023-05-10T15:52:23;0.80;;;0.43;;
9166;SDS011;4618;48.818;9.088;2023-05-10T15:54:49;1.07;;;0.50;;
9166;SDS011;4618;48.818;9.088;2023-05-10T15:57:15;1.27;;;0.37;;